Time;durP1;ratioP1;P1;durP2;ratioP2;P2;SDS_P1;SDS_P2;PMS_P1;PMS_P2;Temp;Humidity;BMP_temperature;BMP_pressure;BME280_temperature;BME280_humidity;BME280_pressure;Samples;Min_cycle;Max_cycle;Signal;HPM_P1;HPM_P2
2023/07/30 00:00:02;;;;;;;17.08;7.20;;;;;;;14.33;100.00;98929.69;5139283;28;20051;-63
2023/07/30 00:02:28;;;;;;;15.48;6.10;;;;;;;14.33;100.00;98929.69;5139719;28;20158;-63
2023/07/30 00:04:54;;;;;;;14.65;6.72;;;;;;;14.32;100.00;98928.09;5139170;28;20051;-63
2023/07/30 00:07:21;;;;;;;10.98;5.95;;;;;;;14.31;100.00;98930.09;5139714;27;20046;-61
2023/07/30 00:09:47;;;;;;;18.13;6.53;;;;;;;14.25;100.00;98928.13;5139369;28;20395;-61
2023/07/30 00:12:12;;;;;;;10.70;6.80;;;;;;;14.25;100.00;98925.34;5139254;28;20074;-60
2023/07/30 00:14:38;;;;;;;13.75;6.78;;;;;;;14.24;100.00;98924.56;5139062;28;20047;-60
2023/07/30 00:17:05;;;;;;;12.80;7.20;;;;;;;14.18;100.00;98926.16;5138962;28;20047;-62
2023/07/30 00:19:31;;;;;;;9.43;6.95;;;;;;;14.13;100.00;98927.34;5139349;28;20183;-62
2023/07/30 00:21:57;;;;;;;13.20;7.03;;;;;;;14.19;100.00;98933.22;5139092;28;20373;-61
2023/07/30 00:24:23;;;;;;;12.88;7.05;;;;;;;14.15;100.00;98928.91;5139374;28;20193;-61
2023/07/30 00:26:49;;;;;;;15.02;6.85;;;;;;;14.13;100.00;98926.56;5138980;28;20069;-61
2023/07/30 00:29:15;;;;;;;9.70;6.05;;;;;;;14.13;100.00;98927.34;5138821;28;20412;-61
2023/07/30 00:31:41;;;;;;;16.27;6.35;;;;;;;14.10;100.00;98925.38;5138750;28;20058;-61
2023/07/30 00:34:07;;;;;;;17.83;8.25;;;;;;;14.11;100.00;98928.91;5139314;28;20043;-62
2023/07/30 00:36:32;;;;;;;9.85;6.10;;;;;;;14.02;100.00;98923.78;5138593;27;20066;-63
2023/07/30 00:38:58;;;;;;;14.40;7.10;;;;;;;14.00;100.00;98928.91;5138923;28;20047;-63
2023/07/30 00:41:25;;;;;;;11.40;7.00;;;;;;;13.99;100.00;98921.81;5138916;28;20074;-63
2023/07/30 00:43:51;;;;;;;15.60;7.05;;;;;;;13.96;100.00;98921.81;5138797;28;20110;-63
2023/07/30 00:46:17;;;;;;;11.40;6.82;;;;;;;13.97;100.00;98915.16;5138906;28;20189;-63
2023/07/30 00:48:43;;;;;;;15.63;7.35;;;;;;;13.92;100.00;98919.06;5138657;28;20047;-63
2023/07/30 00:51:13;;;;;;;10.15;6.72;;;;;;;13.88;100.00;98918.28;5138805;28;20047;-61
2023/07/30 00:53:39;;;;;;;16.23;7.32;;;;;;;13.92;100.00;98916.31;5137427;27;20107;-63
2023/07/30 00:56:05;;;;;;;15.30;7.60;;;;;;;13.91;100.00;98920.25;5138660;28;20286;-63
2023/07/30 00:58:33;;;;;;;12.45;7.38;;;;;;;13.87;100.00;98927.72;5138458;28;20047;-62
2023/07/30 01:00:59;;;;;;;15.48;7.43;;;;;;;13.82;100.00;98922.59;5138829;28;20323;-63
2023/07/30 01:03:25;;;;;;;13.38;7.18;;;;;;;13.81;100.00;98924.56;5138250;28;20097;-63
2023/07/30 01:05:51;;;;;;;11.18;6.53;;;;;;;13.78;100.00;98913.53;5138665;28;20401;-62
2023/07/30 01:08:17;;;;;;;12.65;7.43;;;;;;;13.78;100.00;98919.06;5138100;27;20485;-63
2023/07/30 01:10:44;;;;;;;10.95;7.20;;;;;;;13.78;100.00;98919.84;5138075;28;20050;-64
2023/07/30 01:13:10;;;;;;;10.85;6.93;;;;;;;13.75;100.00;98917.09;5138116;28;20051;-63
2023/07/30 01:15:37;;;;;;;19.83;7.75;;;;;;;13.74;100.00;98913.53;5138262;28;20051;-61
2023/07/30 01:18:03;;;;;;;14.65;7.38;;;;;;;13.67;100.00;98907.25;5138409;28;20082;-63
2023/07/30 01:20:31;;;;;;;15.55;7.78;;;;;;;13.65;100.00;98905.66;5138140;28;20130;-61
2023/07/30 01:22:57;;;;;;;15.55;7.38;;;;;;;13.64;100.00;98904.09;5138463;28;20108;-64
2023/07/30 01:25:28;;;;;;;9.95;6.93;;;;;;;13.58;100.00;98900.13;5138008;28;20065;-63
2023/07/30 01:27:58;;;;;;;13.52;8.20;;;;;;;13.62;100.00;98902.91;5138309;28;20050;-62
2023/07/30 01:30:28;;;;;;;12.23;8.05;;;;;;;13.57;100.00;98895.81;5137876;28;20055;-62
2023/07/30 01:32:54;;;;;;;15.27;7.32;;;;;;;13.61;100.00;98895.81;5138172;28;20146;-63
2023/07/30 01:35:21;;;;;;;12.75;7.25;;;;;;;13.47;100.00;98893.84;5138054;28;20089;-63
2023/07/30 01:37:48;;;;;;;20.45;8.02;;;;;;;13.56;100.00;98886.00;5137619;27;20051;-60
2023/07/30 01:40:15;;;;;;;12.55;7.68;;;;;;;13.57;100.00;98887.56;5137757;28;20050;-61
2023/07/30 01:42:41;;;;;;;12.20;7.35;;;;;;;13.56;100.00;98890.69;5137838;28;20153;-61
2023/07/30 01:45:07;;;;;;;16.33;7.85;;;;;;;13.48;100.00;98906.41;5137988;28;20047;-62
2023/07/30 01:47:33;;;;;;;11.60;7.60;;;;;;;13.48;100.00;98897.38;5137710;28;20051;-60
2023/07/30 01:49:59;;;;;;;12.00;7.97;;;;;;;13.47;100.00;98898.56;5137846;28;20112;-62
2023/07/30 01:52:25;;;;;;;12.88;8.25;;;;;;;13.40;100.00;98910.34;5137540;28;20069;-61
2023/07/30 01:54:51;;;;;;;13.45;8.43;;;;;;;13.40;100.00;98902.09;5137933;28;20043;-61
2023/07/30 01:57:18;;;;;;;13.55;8.20;;;;;;;13.38;100.00;98896.97;5137423;28;20082;-63
2023/07/30 01:59:44;;;;;;;18.65;8.43;;;;;;;13.41;100.00;98898.16;5137949;28;20395;-62
2023/07/30 02:02:10;;;;;;;14.55;7.78;;;;;;;13.36;100.00;98893.81;5137353;28;20142;-62
2023/07/30 02:04:36;;;;;;;10.60;7.35;;;;;;;13.36;100.00;98896.56;5137061;27;20047;-64
2023/07/30 02:07:02;;;;;;;13.27;8.40;;;;;;;13.30;100.00;98900.09;5137323;27;20051;-64
2023/07/30 02:09:28;;;;;;;19.92;8.80;;;;;;;13.27;100.00;98895.38;5137515;28;20047;-61
2023/07/30 02:11:53;;;;;;;15.73;8.50;;;;;;;13.15;100.00;98883.50;5137463;28;20059;-62
2023/07/30 02:14:20;;;;;;;13.93;8.57;;;;;;;13.25;100.00;98861.94;5137138;28;20378;-61
2023/07/30 02:16:46;;;;;;;13.02;8.00;;;;;;;13.33;100.00;98856.06;5137451;28;20428;-61
2023/07/30 02:19:12;;;;;;;18.45;9.10;;;;;;;13.34;100.00;98860.38;5137272;28;20058;-61
2023/07/30 02:21:42;;;;;;;16.90;9.75;;;;;;;13.36;100.00;98859.97;5137576;28;20139;-60
2023/07/30 02:24:11;;;;;;;17.17;9.77;;;;;;;13.42;100.00;98866.66;5137118;28;20054;-62
2023/07/30 02:26:37;;;;;;;16.88;9.40;;;;;;;13.44;100.00;98869.06;5137712;28;20062;-64
2023/07/30 02:29:03;;;;;;;14.95;9.45;;;;;;;13.40;100.00;98869.81;5136920;28;20451;-62
2023/07/30 02:31:30;;;;;;;20.05;9.25;;;;;;;13.42;100.00;98875.72;5137208;28;20047;-61
2023/07/30 02:33:56;;;;;;;18.38;9.30;;;;;;;13.46;100.00;98872.97;5137197;28;20061;-62
2023/07/30 02:36:22;;;;;;;16.38;9.15;;;;;;;13.46;100.00;98878.47;5137110;27;20138;-63
2023/07/30 02:38:48;;;;;;;17.48;7.90;;;;;;;13.42;100.00;98883.97;5137202;28;20196;-62
2023/07/30 02:41:14;;;;;;;17.73;9.63;;;;;;;13.47;100.00;98890.31;5136866;28;20336;-60
2023/07/30 02:43:40;;;;;;;13.43;9.20;;;;;;;13.47;100.00;98884.78;5137071;28;20130;-60
2023/07/30 02:46:06;;;;;;;10.93;8.63;;;;;;;13.52;100.00;98885.19;5136765;28;20062;-63
2023/07/30 02:48:33;;;;;;;18.35;9.27;;;;;;;13.48;100.00;98891.88;5137077;28;20409;-61
2023/07/30 02:50:59;;;;;;;13.85;9.20;;;;;;;13.49;100.00;98887.94;5136727;28;20145;-60
2023/07/30 02:53:25;;;;;;;13.65;8.85;;;;;;;13.63;100.00;98902.53;5137162;28;20142;-61
2023/07/30 02:55:51;;;;;;;19.27;8.65;;;;;;;13.73;100.00;98905.66;5136683;28;20062;-62
2023/07/30 02:58:17;;;;;;;12.35;8.02;;;;;;;14.16;100.00;98923.03;5137186;28;20047;-63
2023/07/30 03:00:43;;;;;;;16.95;8.60;;;;;;;14.65;100.00;98934.38;5136900;28;20055;-63
2023/07/30 03:03:09;;;;;;;14.60;7.57;;;;;;;15.04;100.00;98946.09;5136596;28;20051;-62
2023/07/30 03:05:35;;;;;;;15.35;8.23;;;;;;;15.28;100.00;98872.63;5136802;28;20083;-62
2023/07/30 03:08:01;;;;;;;12.38;7.95;;;;;;;15.84;100.00;98753.03;5136493;27;20057;-64
2023/07/30 03:10:27;;;;;;;10.98;8.25;;;;;;;16.05;100.00;98544.66;5136675;28;20047;-63
2023/07/30 03:12:53;;;;;;;14.38;7.85;;;;;;;16.51;100.00;98369.66;5136519;28;20055;-61
2023/07/30 03:15:19;;;;;;;14.60;8.07;;;;;;;16.67;100.00;98150.34;5136849;28;20047;-61
2023/07/30 03:17:45;;;;;;;12.65;7.40;;;;;;;17.05;100.00;98001.13;5138970;27;20058;-61
2023/07/30 03:20:11;;;;;;;16.55;13.15;;;;;;;17.41;100.00;97825.59;5140393;28;20104;-62
2023/07/30 03:22:37;;;;;;;10.43;7.70;;;;;;;17.71;100.00;97688.47;5139965;28;20069;-63
2023/07/30 03:25:04;;;;;;;13.38;9.60;;;;;;;17.96;100.00;97598.09;5140392;28;20100;-63
2023/07/30 03:27:31;;;;;;;17.63;11.95;;;;;;;18.21;100.00;97514.75;5139846;28;20392;-63
2023/07/30 03:29:56;;;;;;;10.98;8.43;;;;;;;18.22;100.00;97471.13;5140285;28;20138;-63
2023/07/30 03:32:22;;;;;;;16.65;7.97;;;;;;;18.63;100.00;97449.69;5139936;28;20043;-64
2023/07/30 03:34:48;;;;;;;11.70;7.55;;;;;;;18.87;100.00;97450.63;5139691;28;20088;-63
2023/07/30 03:37:14;;;;;;;11.90;7.00;;;;;;;19.81;100.00;97480.66;5139939;27;20050;-63
2023/07/30 03:39:41;;;;;;;14.95;7.65;;;;;;;20.00;100.00;97554.47;5139772;28;20142;-62
2023/07/30 03:42:07;;;;;;;10.80;6.85;;;;;;;19.84;100.00;97602.06;5139817;28;20059;-63
2023/07/30 03:44:33;;;;;;;10.95;6.60;;;;;;;19.69;100.00;97566.56;5139658;28;20141;-62
2023/07/30 03:46:58;;;;;;;10.40;6.32;;;;;;;19.25;100.00;97497.38;5139811;28;20047;-61
2023/07/30 03:49:24;;;;;;;8.88;6.82;;;;;;;19.10;100.00;97463.13;5139518;28;20089;-62
2023/07/30 03:51:50;;;;;;;12.80;7.10;;;;;;;18.70;100.00;97439.03;5139857;28;20184;-61
2023/07/30 03:54:16;;;;;;;11.13;6.38;;;;;;;18.70;100.00;97438.28;5139427;28;20333;-62
2023/07/30 03:56:43;;;;;;;14.02;6.53;;;;;;;18.64;100.00;97417.91;5139867;28;20106;-63
2023/07/30 03:59:09;;;;;;;16.98;6.43;;;;;;;18.68;100.00;97424.06;5139333;28;20047;-62
2023/07/30 04:01:35;;;;;;;10.32;6.25;;;;;;;18.88;100.00;97434.75;5139231;28;20406;-64
2023/07/30 04:04:00;;;;;;;21.02;6.53;;;;;;;18.84;100.00;97432.13;5139376;28;20051;-64
2023/07/30 04:06:26;;;;;;;11.75;6.78;;;;;;;19.38;100.00;97436.09;5139331;27;20078;-64
2023/07/30 04:08:52;;;;;;;12.38;6.28;;;;;;;19.52;100.00;97465.22;5139513;28;20075;-64
2023/07/30 04:11:18;;;;;;;9.43;6.03;;;;;;;20.16;100.00;97517.94;5139029;28;20113;-63
2023/07/30 04:13:45;;;;;;;7.32;5.43;;;;;;;20.54;100.00;97599.28;5139386;28;20085;-62
2023/07/30 04:16:11;;;;;;;8.05;4.97;;;;;;;21.20;100.00;97663.34;5139139;28;20051;-63
2023/07/30 04:18:36;;;;;;;6.63;4.75;;;;;;;21.22;100.00;97682.38;5139444;28;20076;-62
2023/07/30 04:21:02;;;;;;;10.02;5.20;;;;;;;21.67;100.00;97745.50;5139011;28;20054;-62
2023/07/30 04:23:28;;;;;;;9.25;5.00;;;;;;;22.53;100.00;97834.06;5139393;28;20325;-63
2023/07/30 04:25:54;;;;;;;8.82;5.07;;;;;;;22.91;100.00;97828.91;5138863;28;20057;-64
2023/07/30 04:28:20;;;;;;;16.33;5.35;;;;;;;23.39;100.00;97879.84;5139438;27;20047;-64
2023/07/30 04:30:47;;;;;;;9.20;6.15;;;;;;;23.34;100.00;97916.09;5138764;28;20054;-65
2023/07/30 04:33:13;;;;;;;12.50;6.47;;;;;;;22.97;100.00;97871.75;5138668;28;20472;-64
2023/07/30 04:35:39;;;;;;;12.90;5.43;;;;;;;21.94;100.00;97766.09;5138823;28;20405;-63
2023/07/30 04:38:05;;;;;;;4.60;4.13;;;;;;;21.10;100.00;97681.38;5138613;27;20082;-64
2023/07/30 04:40:31;;;;;;;5.10;4.57;;;;;;;21.07;100.00;97563.28;5139013;28;20145;-63
2023/07/30 04:42:57;;;;;;;6.88;6.18;;;;;;;20.82;100.00;97488.53;5138798;28;20123;-62
2023/07/30 04:45:23;;;;;;;12.05;5.60;;;;;;;21.01;100.00;97478.81;5139031;28;20059;-61
2023/07/30 04:47:50;;;;;;;11.18;5.45;;;;;;;21.06;100.00;97475.38;5138500;28;20512;-61
2023/07/30 04:50:16;;;;;;;6.75;4.38;;;;;;;21.57;100.00;97532.88;5138907;28;20047;-62
2023/07/30 04:52:42;;;;;;;7.35;3.95;;;;;;;21.91;100.00;97739.16;5138334;28;20051;-62
2023/07/30 04:55:08;;;;;;;5.18;4.10;;;;;;;22.80;100.00;97737.28;5138886;28;20053;-64
2023/07/30 04:57:34;;;;;;;6.70;4.95;;;;;;;23.65;100.00;97835.22;5138362;28;20078;-61
2023/07/30 05:00:00;;;;;;;5.15;3.65;;;;;;;24.44;100.00;97970.03;5138627;28;20367;-62
2023/07/30 05:02:26;;;;;;;4.15;3.33;;;;;;;25.07;100.00;98072.03;5138561;28;20142;-62
2023/07/30 05:04:52;;;;;;;4.55;3.60;;;;;;;25.44;100.00;98093.94;5138217;28;20145;-64
2023/07/30 05:07:18;;;;;;;2.92;2.55;;;;;;;25.11;100.00;98123.09;5138462;27;20062;-64
2023/07/30 05:09:44;;;;;;;6.97;3.90;;;;;;;24.49;100.00;98132.63;5138294;28;20047;-64
2023/07/30 05:12:10;;;;;;;6.78;3.88;;;;;;;25.08;100.00;98140.88;5138440;28;20138;-62
2023/07/30 05:14:36;;;;;;;3.88;3.47;;;;;;;24.60;100.00;98124.38;5138032;28;20103;-61
2023/07/30 05:17:02;;;;;;;4.72;3.47;;;;;;;24.83;100.00;98110.72;5138468;28;20405;-62
2023/07/30 05:19:28;;;;;;;7.53;3.95;;;;;;;24.89;100.00;98115.13;5138078;28;20092;-64
2023/07/30 05:21:55;;;;;;;4.65;3.55;;;;;;;24.44;100.00;98101.69;5138437;28;20340;-63
2023/07/30 05:24:21;;;;;;;5.75;3.35;;;;;;;24.27;100.00;98059.38;5137891;28;20090;-63
2023/07/30 05:26:47;;;;;;;2.53;2.33;;;;;;;23.37;100.00;98094.13;5138410;28;20047;-63
2023/07/30 05:29:13;;;;;;;4.90;3.55;;;;;;;23.74;100.00;98049.84;5137831;28;20497;-63
2023/07/30 05:31:39;;;;;;;6.40;4.10;;;;;;;23.64;100.00;98057.50;5137615;28;20152;-62
2023/07/30 05:34:05;;;;;;;6.22;3.67;;;;;;;23.82;100.00;98048.19;5137831;28;20119;-62
2023/07/30 05:36:31;;;;;;;4.32;3.22;;;;;;;24.47;100.00;98095.91;5137913;27;20083;-61
2023/07/30 05:38:58;;;;;;;6.07;3.60;;;;;;;24.33;100.00;98111.44;5137368;27;20357;-63
2023/07/30 05:41:24;;;;;;;6.25;3.47;;;;;;;24.67;100.00;98103.59;5137649;28;20158;-62
2023/07/30 05:43:50;;;;;;;4.88;3.40;;;;;;;24.23;100.00;98129.59;5137983;28;20118;-62
2023/07/30 05:46:16;;;;;;;4.53;2.72;;;;;;;23.82;100.00;98073.38;5137663;28;20149;-63
2023/07/30 05:48:42;;;;;;;4.80;2.90;;;;;;;23.82;100.00;98078.22;5137847;28;20058;-64
2023/07/30 05:51:08;;;;;;;5.53;3.60;;;;;;;23.79;100.00;98040.00;5137531;28;20137;-65
2023/07/30 05:53:34;;;;;;;5.43;3.53;;;;;;;23.25;100.00;98043.53;5137771;28;20149;-64
2023/07/30 05:56:00;;;;;;;5.07;3.65;;;;;;;23.44;100.00;98054.59;5137416;28;20340;-64
2023/07/30 05:58:26;;;;;;;8.73;3.17;;;;;;;24.24;100.00;98086.31;5137834;28;20050;-65
2023/07/30 06:00:52;;;;;;;7.10;3.85;;;;;;;25.03;100.00;98104.38;5137588;28;20070;-64
2023/07/30 06:03:18;;;;;;;4.15;3.00;;;;;;;25.26;100.00;98113.88;5137599;28;20152;-64
2023/07/30 06:05:44;;;;;;;7.35;3.50;;;;;;;24.51;100.00;98116.06;5137563;28;20093;-62
2023/07/30 06:08:10;;;;;;;4.47;3.42;;;;;;;25.15;100.00;98133.34;5137412;27;20134;-64
2023/07/30 06:10:36;;;;;;;5.53;3.40;;;;;;;25.56;100.00;98122.91;5137641;28;20053;-65
2023/07/30 06:13:03;;;;;;;4.82;3.20;;;;;;;25.66;100.00;98146.78;5137284;28;20051;-62
2023/07/30 06:15:29;;;;;;;3.55;2.70;;;;;;;26.05;100.00;98119.13;5137650;28;20047;-65
2023/07/30 06:17:55;;;;;;;9.32;3.42;;;;;;;25.19;100.00;98125.50;5137229;28;20137;-65
2023/07/30 06:20:21;;;;;;;7.57;3.20;;;;;;;24.59;100.00;98116.44;5137553;28;20051;-63
2023/07/30 06:22:47;;;;;;;8.88;3.33;;;;;;;24.93;100.00;98116.97;5137040;28;20472;-61
2023/07/30 06:25:13;;;;;;;6.22;3.10;;;;;;;24.78;100.00;98095.34;5137499;28;20077;-61
2023/07/30 06:27:39;;;;;;;7.40;3.20;;;;;;;24.55;100.00;98048.63;5136924;28;20142;-64
2023/07/30 06:30:07;;;;;;;7.85;3.35;;;;;;;24.11;100.00;98063.44;5137006;28;20047;-64
2023/07/30 06:32:33;;;;;;;3.35;2.25;;;;;;;23.78;100.00;98004.88;5137196;28;20058;-63
2023/07/30 06:34:59;;;;;;;4.50;3.03;;;;;;;23.58;100.00;97969.16;5136948;28;20047;-62
2023/07/30 06:37:25;;;;;;;4.40;3.28;;;;;;;24.00;100.00;97938.06;5136908;27;20119;-62
2023/07/30 06:39:51;;;;;;;5.60;3.40;;;;;;;24.47;100.00;98027.91;5136790;28;20051;-64
2023/07/30 06:42:17;;;;;;;5.72;3.67;;;;;;;24.44;100.00;98048.47;5137027;28;20058;-64
2023/07/30 06:44:43;;;;;;;9.48;3.78;;;;;;;24.20;100.00;98046.56;5136721;28;20061;-65
2023/07/30 06:47:09;;;;;;;5.80;3.22;;;;;;;23.26;100.00;98038.75;5137211;28;20138;-64
2023/07/30 06:49:35;;;;;;;5.00;4.10;;;;;;;22.89;100.00;97955.16;5136808;28;20061;-65
2023/07/30 06:52:01;;;;;;;17.25;3.08;;;;;;;23.06;100.00;97996.63;5137940;27;20043;-64
2023/07/30 06:54:28;;;;;;;8.15;4.05;;;;;;;24.63;100.00;98046.97;5140201;28;20058;-61
2023/07/30 06:56:54;;;;;;;7.03;3.53;;;;;;;24.89;100.00;98089.13;5140655;28;20055;-64
2023/07/30 06:59:20;;;;;;;5.55;3.30;;;;;;;25.58;100.00;98120.38;5140139;28;20139;-64
2023/07/30 07:01:46;;;;;;;4.60;3.33;;;;;;;26.24;100.00;98142.03;5140341;28;20141;-63
2023/07/30 07:04:12;;;;;;;7.63;3.75;;;;;;;26.20;100.00;98127.44;5140425;28;20142;-62
2023/07/30 07:06:38;;;;;;;8.27;3.95;;;;;;;27.02;100.00;98162.84;5140232;27;20388;-63
2023/07/30 07:09:04;;;;;;;7.53;3.97;;;;;;;26.52;100.00;98170.44;5140232;28;20083;-63
2023/07/30 07:11:30;;;;;;;6.22;3.03;;;;;;;26.94;100.00;98173.81;5139794;28;20060;-62
2023/07/30 07:13:56;;;;;;;9.98;3.28;;;;;;;27.54;100.00;98171.88;5140363;28;20083;-62
2023/07/30 07:16:22;;;;;;;5.78;3.33;;;;;;;27.36;100.00;98175.91;5140120;28;20317;-62
2023/07/30 07:18:48;;;;;;;6.50;3.08;;;;;;;26.60;100.00;98164.34;5140374;28;20137;-62
2023/07/30 07:21:15;;;;;;;6.32;3.55;;;;;;;26.98;100.00;98155.41;5139925;28;20058;-61
2023/07/30 07:23:41;;;;;;;4.80;3.00;;;;;;;27.08;100.00;98144.75;5140315;28;20150;-61
2023/07/30 07:26:07;;;;;;;5.07;2.88;;;;;;;27.46;100.00;98168.03;5139819;28;20051;-63
2023/07/30 07:28:33;;;;;;;3.90;3.35;;;;;;;27.09;100.00;98154.75;5140059;28;20046;-65
2023/07/30 07:30:59;;;;;;;12.13;3.50;;;;;;;27.23;100.00;98150.25;5139732;28;20047;-65
2023/07/30 07:33:25;;;;;;;4.03;3.05;;;;;;;27.49;99.42;98169.84;5139723;28;20089;-64
2023/07/30 07:35:51;;;;;;;7.50;2.92;;;;;;;28.58;93.74;98164.75;5139723;28;20090;-60
2023/07/30 07:38:17;;;;;;;7.65;3.05;;;;;;;28.38;90.99;98171.38;5139483;27;20051;-59
2023/07/30 07:40:44;;;;;;;3.70;2.88;;;;;;;28.57;89.83;98166.81;5140008;28;20046;-61
2023/07/30 07:43:10;;;;;;;6.32;3.22;;;;;;;28.24;92.58;98163.94;5139711;28;20061;-63
2023/07/30 07:45:36;;;;;;;5.40;3.28;;;;;;;26.81;100.00;98154.53;5139894;28;20051;-61
2023/07/30 07:48:01;;;;;;;8.27;3.40;;;;;;;27.74;97.18;98161.72;5139640;28;20078;-61
2023/07/30 07:50:27;;;;;;;4.78;3.00;;;;;;;28.38;92.98;98160.09;5139684;28;20051;-59
2023/07/30 07:52:53;;;;;;;3.33;2.67;;;;;;;28.08;95.42;98146.47;5139317;28;20090;-59
2023/07/30 07:55:20;;;;;;;8.73;2.88;;;;;;;28.33;95.38;98139.09;5139771;28;20051;-61
2023/07/30 07:57:46;;;;;;;4.95;3.20;;;;;;;27.63;97.10;98148.38;5138912;28;20440;-60
2023/07/30 08:00:12;;;;;;;4.10;2.75;;;;;;;27.58;100.00;98137.84;5139388;28;20101;-60
2023/07/30 08:02:38;;;;;;;7.40;3.20;;;;;;;28.12;99.97;98141.38;5138764;27;20456;-63
2023/07/30 08:05:04;;;;;;;5.65;2.90;;;;;;;26.07;100.00;98140.34;5139177;28;20084;-62
2023/07/30 08:07:30;;;;;;;4.63;2.75;;;;;;;26.43;100.00;98116.41;5139485;27;20157;-60
2023/07/30 08:09:56;;;;;;;15.98;3.20;;;;;;;25.07;100.00;98094.47;5139273;28;20146;-62
2023/07/30 08:12:22;;;;;;;3.35;2.70;;;;;;;24.81;100.00;98068.38;5139028;28;20485;-63
2023/07/30 08:14:48;;;;;;;5.10;2.65;;;;;;;24.97;100.00;98058.66;5139075;28;20157;-62
2023/07/30 08:17:14;;;;;;;6.63;2.95;;;;;;;25.57;100.00;98068.34;5139346;28;20051;-63
2023/07/30 08:19:40;;;;;;;4.60;2.78;;;;;;;24.35;100.00;98044.50;5138998;28;20082;-63
2023/07/30 08:22:06;;;;;;;4.13;2.60;;;;;;;23.61;100.00;98004.56;5139435;28;20051;-62
2023/07/30 08:24:32;;;;;;;4.32;2.70;;;;;;;23.84;100.00;98006.50;5138968;28;20061;-61
2023/07/30 08:26:58;;;;;;;4.32;2.90;;;;;;;23.39;100.00;97952.56;5139235;28;20426;-60
2023/07/30 08:29:24;;;;;;;3.40;3.00;;;;;;;23.73;100.00;97989.53;5139076;28;20196;-60
2023/07/30 08:31:50;;;;;;;4.65;2.95;;;;;;;23.99;100.00;97991.72;5138633;28;20097;-61
2023/07/30 08:34:16;;;;;;;2.75;2.33;;;;;;;23.92;100.00;97971.25;5139050;28;20082;-60
2023/07/30 08:36:42;;;;;;;6.78;3.10;;;;;;;23.41;100.00;97963.25;5138759;27;20401;-61
2023/07/30 08:39:08;;;;;;;4.07;2.63;;;;;;;23.74;100.00;97985.47;5139049;28;20054;-62
2023/07/30 08:41:34;;;;;;;3.30;2.53;;;;;;;23.45;100.00;97984.19;5138865;28;20051;-63
2023/07/30 08:44:01;;;;;;;7.75;3.60;;;;;;;23.23;100.00;97955.81;5138963;28;20054;-62
2023/07/30 08:46:28;;;;;;;3.08;2.38;;;;;;;23.55;100.00;97959.69;5138493;28;20065;-61
2023/07/30 08:48:54;;;;;;;3.90;3.20;;;;;;;22.96;100.00;97954.03;5138901;28;20400;-62
2023/07/30 08:51:22;;;;;;;3.08;2.30;;;;;;;22.46;100.00;97934.97;5138536;28;20058;-61
2023/07/30 08:53:48;;;;;;;3.95;2.40;;;;;;;22.85;100.00;97876.31;5138845;28;20051;-60
2023/07/30 08:56:15;;;;;;;4.57;2.45;;;;;;;22.93;100.00;97883.09;5138297;28;20141;-60
2023/07/30 08:58:42;;;;;;;4.75;2.42;;;;;;;22.68;100.00;97880.81;5138539;28;20074;-61
2023/07/30 09:01:09;;;;;;;2.60;2.40;;;;;;;22.51;100.00;97863.72;5138338;28;20380;-63
2023/07/30 09:03:39;;;;;;;4.00;2.50;;;;;;;22.22;100.00;97755.50;5138462;28;20051;-61
2023/07/30 09:06:05;;;;;;;5.88;2.15;;;;;;;21.87;100.00;97694.69;5138661;28;20047;-62
2023/07/30 09:08:32;;;;;;;2.50;2.30;;;;;;;21.41;100.00;97589.06;5138287;27;20428;-61
2023/07/30 09:10:57;;;;;;;3.35;2.55;;;;;;;21.90;100.00;97504.03;5138508;28;20124;-60
2023/07/30 09:13:23;;;;;;;4.82;2.72;;;;;;;21.80;100.00;97505.38;5137994;27;20330;-61
2023/07/30 09:15:49;;;;;;;4.38;2.90;;;;;;;21.60;100.00;97386.91;5137429;28;20401;-62
2023/07/30 09:18:17;;;;;;;5.65;2.97;;;;;;;21.01;100.00;97386.88;5137765;28;20051;-63
2023/07/30 09:20:43;;;;;;;7.82;3.30;;;;;;;20.84;100.00;97422.00;5138281;28;20115;-63
2023/07/30 09:23:10;;;;;;;5.13;3.28;;;;;;;20.91;100.00;97533.81;5137846;28;20137;-62
2023/07/30 09:25:37;;;;;;;6.43;3.20;;;;;;;20.75;100.00;97609.41;5138244;28;20051;-63
2023/07/30 09:28:03;;;;;;;3.55;3.15;;;;;;;20.69;100.00;97622.41;5138264;28;20205;-62
2023/07/30 09:30:30;;;;;;;5.47;3.00;;;;;;;20.61;100.00;97816.88;5137985;28;20055;-61
2023/07/30 09:32:57;;;;;;;5.60;3.22;;;;;;;20.47;100.00;97992.88;5138107;28;20051;-63
2023/07/30 09:35:24;;;;;;;5.60;3.00;;;;;;;20.18;100.00;98168.53;5138026;28;20075;-62
2023/07/30 09:37:58;;;;;;;3.03;2.80;;;;;;;20.34;100.00;98273.31;5137913;27;20042;-62
2023/07/30 09:40:31;;;;;;;4.78;2.88;;;;;;;20.12;100.00;98399.28;5137835;28;20147;-60
2023/07/30 09:42:57;;;;;;;6.97;3.35;;;;;;;20.17;100.00;98492.56;5138083;28;20380;-63
2023/07/30 09:45:25;;;;;;;7.30;2.90;;;;;;;20.14;100.00;98571.38;5137665;28;20150;-62
2023/07/30 09:47:52;;;;;;;3.78;3.05;;;;;;;20.11;100.00;98534.09;5138093;28;20357;-61
2023/07/30 09:50:18;;;;;;;6.38;3.10;;;;;;;20.01;100.00;98546.31;5137475;28;20142;-63
2023/07/30 09:52:44;;;;;;;7.82;3.30;;;;;;;20.17;100.00;98565.69;5137601;28;20090;-63
2023/07/30 09:55:11;;;;;;;7.90;3.25;;;;;;;19.94;100.00;98510.38;5137553;28;20065;-60
2023/07/30 09:57:38;;;;;;;5.45;3.10;;;;;;;20.09;100.00;98577.47;5137613;28;20054;-62
2023/07/30 10:00:05;;;;;;;3.85;2.83;;;;;;;20.32;100.00;98513.13;5137804;28;20321;-63
2023/07/30 10:02:35;;;;;;;6.32;3.17;;;;;;;20.50;100.00;98473.59;5137566;28;20134;-62
2023/07/30 10:05:03;;;;;;;3.85;3.05;;;;;;;20.44;100.00;98386.31;5137761;28;20146;-63
2023/07/30 10:07:30;;;;;;;3.97;3.35;;;;;;;20.07;100.00;98401.88;5137065;27;20065;-62
2023/07/30 10:10:01;;;;;;;4.57;3.38;;;;;;;20.63;100.00;98510.59;5137649;28;20043;-64
2023/07/30 10:12:31;;;;;;;3.78;2.67;;;;;;;20.40;100.00;98346.69;5137093;28;20100;-63
2023/07/30 10:14:57;;;;;;;4.05;3.00;;;;;;;20.65;100.00;98263.03;5137595;28;20083;-61
2023/07/30 10:17:23;;;;;;;2.95;2.42;;;;;;;20.46;100.00;98191.75;5137439;28;20492;-64
2023/07/30 10:19:50;;;;;;;3.42;2.83;;;;;;;20.96;100.00;97971.75;5137201;28;20047;-62
2023/07/30 10:22:25;;;;;;;3.78;2.85;;;;;;;21.11;100.00;97903.81;5137184;28;20416;-61
2023/07/30 10:24:58;;;;;;;4.53;2.55;;;;;;;21.32;100.00;97962.59;5137115;28;20058;-61
2023/07/30 10:27:26;;;;;;;6.07;3.00;;;;;;;21.41;100.00;97897.75;5144243;27;20137;-62
2023/07/30 10:30:09;;;;;;;3.13;2.47;;;;;;;21.19;100.00;97764.13;5144094;27;20070;-61
2023/07/30 10:32:38;;;;;;;2.83;2.42;;;;;;;20.98;100.00;97676.78;5144323;27;20051;-63
2023/07/30 10:35:05;;;;;;;4.50;3.30;;;;;;;20.77;100.00;97581.09;5144059;27;20147;-62
2023/07/30 10:37:31;;;;;;;4.32;3.00;;;;;;;20.89;100.00;97646.94;5144181;27;20102;-63
2023/07/30 10:39:57;;;;;;;3.45;3.15;;;;;;;20.58;100.00;97656.34;5144072;27;20079;-63
2023/07/30 10:42:22;;;;;;;3.65;2.75;;;;;;;20.99;100.00;97603.09;5144014;27;20055;-63
2023/07/30 10:44:49;;;;;;;5.80;3.20;;;;;;;20.51;100.00;97739.41;5144076;27;20051;-63
2023/07/30 10:47:16;;;;;;;8.73;3.47;;;;;;;19.59;100.00;97742.88;5143883;27;20138;-62
2023/07/30 10:49:43;;;;;;;4.07;2.95;;;;;;;19.46;100.00;97997.91;5143875;27;20051;-62
2023/07/30 10:52:10;;;;;;;3.60;2.90;;;;;;;20.42;100.00;98007.38;5143701;27;20158;-63
2023/07/30 10:54:37;;;;;;;4.63;3.05;;;;;;;20.63;100.00;97928.59;5144174;27;20053;-63
2023/07/30 10:57:03;;;;;;;7.30;3.38;;;;;;;20.80;100.00;97833.59;5143644;27;20047;-61
2023/07/30 10:59:34;;;;;;;5.97;3.20;;;;;;;20.71;100.00;97892.84;5144031;27;20055;-62
2023/07/30 11:02:00;;;;;;;3.22;2.95;;;;;;;20.71;100.00;97900.44;5143466;27;20051;-62
2023/07/30 11:04:26;;;;;;;4.30;3.00;;;;;;;20.83;100.00;97765.81;5144004;27;20142;-61
2023/07/30 11:06:52;;;;;;;7.88;3.00;;;;;;;20.65;100.00;97823.06;5143353;27;20421;-62
2023/07/30 11:09:20;;;;;;;4.47;3.38;;;;;;;20.38;100.00;97781.31;5143291;27;20054;-61
2023/07/30 11:11:46;;;;;;;3.67;2.95;;;;;;;20.83;100.00;97724.03;5143536;27;20054;-62
2023/07/30 11:14:15;;;;;;;6.57;3.22;;;;;;;21.05;100.00;97592.84;5143389;27;20047;-63
2023/07/30 11:16:48;;;;;;;5.13;3.10;;;;;;;21.55;100.00;97666.41;5143460;27;20137;-61